sensor_id;sensor_type;location;lat;lon;timestamp;temperature;humidity
20528;DHT22;23612;50.894;10.700;2024-01-15T00:00:41;-0.40;99.90
20528;DHT22;23612;50.894;10.700;2024-01-15T00:03:07;-0.50;99.90
20528;DHT22;23612;50.894;10.700;2024-01-15T00:05:33;-0.40;99.90
20528;DHT22;23612;50.894;10.700;2024-01-15T00:07:58;-0.50;99.90
20528;DHT22;23612;50.894;10.700;2024-01-15T00:10:24;-0.60;99.90
20528;DHT22;23612;50.894;10.700;2024-01-15T00:12:49;-0.50;99.90
20528;DHT22;23612;50.894;10.700;2024-01-15T00:15:15;-0.50;99.90
20528;DHT22;23612;50.894;10.700;2024-01-15T00:17:40;-0.50;99.90
20528;DHT22;23612;50.894;10.700;2024-01-15T00:20:06;-0.60;99.90
20528;DHT22;23612;50.894;10.700;2024-01-15T00:22:32;-0.60;99.90
20528;DHT22;23612;50.894;10.700;2024-01-15T00:24:58;-0.60;99.90
20528;DHT22;23612;50.894;10.700;2024-01-15T00:27:23;-0.60;99.90
20528;DHT22;23612;50.894;10.700;2024-01-15T00:29:49;-0.50;99.90
20528;DHT22;23612;50.894;10.700;2024-01-15T00:32:16;-0.50;99.90
20528;DHT22;23612;50.894;10.700;2024-01-15T00:34:41;-0.50;99.90
20528;DHT22;23612;50.894;10.700;2024-01-15T00:37:07;-0.60;99.90
20528;DHT22;23612;50.894;10.700;2024-01-15T00:39:32;-0.60;99.90
20528;DHT22;23612;50.894;10.700;2024-01-15T00:41:58;-0.60;99.90
20528;DHT22;23612;50.894;10.700;2024-01-15T00:44:23;-0.60;99.90
20528;DHT22;23612;50.894;10.700;2024-01-15T00:46:49;-0.60;99.90
20528;DHT22;23612;50.894;10.700;2024-01-15T00:49:15;-0.70;99.90
20528;DHT22;23612;50.894;10.700;2024-01-15T00:51:41;-0.70;99.90
20528;DHT22;23612;50.894;10.700;2024-01-15T00:54:06;-0.80;99.90
20528;DHT22;23612;50.894;10.700;2024-01-15T00:56:32;-0.80;99.90
20528;DHT22;23612;50.894;10.700;2024-01-15T00:58:57;-0.80;99.90
20528;DHT22;23612;50.894;10.700;2024-01-15T01:01:23;-0.70;99.90
20528;DHT22;23612;50.894;10.700;2024-01-15T01:03:48;-0.70;99.90
20528;DHT22;23612;50.894;10.700;2024-01-15T01:06:14;-0.70;99.90
20528;DHT22;23612;50.894;10.700;2024-01-15T01:08:39;-0.70;99.90
20528;DHT22;23612;50.894;10.700;2024-01-15T01:11:05;-0.70;99.90
20528;DHT22;23612;50.894;10.700;2024-01-15T01:13:32;-0.70;99.90
20528;DHT22;23612;50.894;10.700;2024-01-15T01:15:58;-0.70;99.90
20528;DHT22;23612;50.894;10.700;2024-01-15T01:18:23;-0.70;99.90
20528;DHT22;23612;50.894;10.700;2024-01-15T01:20:49;-0.70;99.90
20528;DHT22;23612;50.894;10.700;2024-01-15T01:23:14;-0.70;99.90
20528;DHT22;23612;50.894;10.700;2024-01-15T01:25:39;-0.60;99.90
20528;DHT22;23612;50.894;10.700;2024-01-15T01:28:05;-0.60;99.90
20528;DHT22;23612;50.894;10.700;2024-01-15T01:30:30;-0.60;99.90
20528;DHT22;23612;50.894;10.700;2024-01-15T01:32:56;-0.60;99.90
20528;DHT22;23612;50.894;10.700;2024-01-15T01:35:22;-0.70;99.90
20528;DHT22;23612;50.894;10.700;2024-01-15T01:37:48;-0.60;99.90
20528;DHT22;23612;50.894;10.700;2024-01-15T01:40:13;-0.60;99.90
20528;DHT22;23612;50.894;10.700;2024-01-15T01:42:39;-0.60;99.90
20528;DHT22;23612;50.894;10.700;2024-01-15T01:45:05;-0.60;99.90
20528;DHT22;23612;50.894;10.700;2024-01-15T01:47:31;-0.60;99.90
20528;DHT22;23612;50.894;10.700;2024-01-15T01:49:57;-0.60;99.90
20528;DHT22;23612;50.894;10.700;2024-01-15T01:52:22;-0.60;99.90
20528;DHT22;23612;50.894;10.700;2024-01-15T01:54:48;-0.60;99.90
20528;DHT22;23612;50.894;10.700;2024-01-15T01:57:14;-0.60;99.90
20528;DHT22;23612;50.894;10.700;2024-01-15T01:59:40;-0.60;99.90
20528;DHT22;23612;50.894;10.700;2024-01-15T02:02:06;-0.70;99.90
20528;DHT22;23612;50.894;10.700;2024-01-15T02:04:32;-0.60;99.90
20528;DHT22;23612;50.894;10.700;2024-01-15T02:06:59;-0.60;99.90
20528;DHT22;23612;50.894;10.700;2024-01-15T02:09:25;-0.50;99.90
20528;DHT22;23612;50.894;10.700;2024-01-15T02:11:51;-0.60;99.90
20528;DHT22;23612;50.894;10.700;2024-01-15T02:14:17;-0.50;99.90
20528;DHT22;23612;50.894;10.700;2024-01-15T02:16:43;-0.50;99.90
20528;DHT22;23612;50.894;10.700;2024-01-15T02:19:15;-0.50;99.90
20528;DHT22;23612;50.894;10.700;2024-01-15T02:21:41;-0.50;99.90
20528;DHT22;23612;50.894;10.700;2024-01-15T02:24:06;-0.50;99.90
20528;DHT22;23612;50.894;10.700;2024-01-15T02:26:32;-0.50;99.90
20528;DHT22;23612;50.894;10.700;2024-01-15T02:29:01;-0.50;99.90
20528;DHT22;23612;50.894;10.700;2024-01-15T02:31:27;-0.50;99.90
20528;DHT22;23612;50.894;10.700;2024-01-15T02:33:53;-0.40;99.90
20528;DHT22;23612;50.894;10.700;2024-01-15T02:36:18;-0.40;99.90
20528;DHT22;23612;50.894;10.700;2024-01-15T02:38:44;-0.40;99.90
20528;DHT22;23612;50.894;10.700;2024-01-15T02:41:09;-0.40;99.90
20528;DHT22;23612;50.894;10.700;2024-01-15T02:43:35;-0.40;99.90
20528;DHT22;23612;50.894;10.700;2024-01-15T02:46:00;-0.40;99.90
20528;DHT22;23612;50.894;10.700;2024-01-15T02:48:26;-0.40;99.90
20528;DHT22;23612;50.894;10.700;2024-01-15T02:50:51;-0.40;99.90
20528;DHT22;23612;50.894;10.700;2024-01-15T02:53:17;-0.40;99.90
20528;DHT22;23612;50.894;10.700;2024-01-15T02:55:42;-0.30;99.90
20528;DHT22;23612;50.894;10.700;2024-01-15T02:58:07;-0.40;99.90
20528;DHT22;23612;50.894;10.700;2024-01-15T03:00:33;-0.40;99.90
20528;DHT22;23612;50.894;10.700;2024-01-15T03:02:58;-0.40;99.90
20528;DHT22;23612;50.894;10.700;2024-01-15T03:05:24;-0.40;99.90
20528;DHT22;23612;50.894;10.700;2024-01-15T03:07:49;-0.50;99.90
20528;DHT22;23612;50.894;10.700;2024-01-15T03:10:15;-0.60;99.90
20528;DHT22;23612;50.894;10.700;2024-01-15T03:12:40;-0.60;99.90
20528;DHT22;23612;50.894;10.700;2024-01-15T03:15:06;-0.60;99.90
20528;DHT22;23612;50.894;10.700;2024-01-15T03:17:32;-0.60;99.90
20528;DHT22;23612;50.894;10.700;2024-01-15T03:19:57;-0.60;99.90
20528;DHT22;23612;50.894;10.700;2024-01-15T03:22:23;-0.60;99.90
20528;DHT22;23612;50.894;10.700;2024-01-15T03:24:48;-0.60;99.90
20528;DHT22;23612;50.894;10.700;2024-01-15T03:27:14;-0.60;99.90
20528;DHT22;23612;50.894;10.700;2024-01-15T03:29:40;-0.50;99.90
20528;DHT22;23612;50.894;10.700;2024-01-15T03:32:06;-0.60;99.90
20528;DHT22;23612;50.894;10.700;2024-01-15T03:34:32;-0.60;99.90
20528;DHT22;23612;50.894;10.700;2024-01-15T03:36:57;-0.70;99.90
20528;DHT22;23612;50.894;10.700;2024-01-15T03:39:24;-0.70;99.90
20528;DHT22;23612;50.894;10.700;2024-01-15T03:41:49;-0.80;99.90
20528;DHT22;23612;50.894;10.700;2024-01-15T03:44:14;-0.80;99.90
20528;DHT22;23612;50.894;10.700;2024-01-15T03:46:40;-0.90;99.90
20528;DHT22;23612;50.894;10.700;2024-01-15T03:49:05;-1.00;99.90
20528;DHT22;23612;50.894;10.700;2024-01-15T03:51:31;-1.10;99.90
20528;DHT22;23612;50.894;10.700;2024-01-15T03:53:56;-1.10;99.90
20528;DHT22;23612;50.894;10.700;2024-01-15T03:56:22;-1.00;99.90
20528;DHT22;23612;50.894;10.700;2024-01-15T03:58:47;-1.00;99.90
20528;DHT22;23612;50.894;10.700;2024-01-15T04:01:13;-0.90;99.90
20528;DHT22;23612;50.894;10.700;2024-01-15T04:03:38;-0.90;99.90
20528;DHT22;23612;50.894;10.700;2024-01-15T04:06:04;-0.90;99.90
20528;DHT22;23612;50.894;10.700;2024-01-15T04:08:30;-0.90;99.90
20528;DHT22;23612;50.894;10.700;2024-01-15T04:10:55;-0.90;99.90
20528;DHT22;23612;50.894;10.700;2024-01-15T04:13:21;-0.90;99.90
20528;DHT22;23612;50.894;10.700;2024-01-15T04:15:47;-0.90;99.90
20528;DHT22;23612;50.894;10.700;2024-01-15T04:18:12;-1.00;99.90
20528;DHT22;23612;50.894;10.700;2024-01-15T04:20:37;-1.00;99.90
20528;DHT22;23612;50.894;10.700;2024-01-15T04:23:04;-1.00;99.90
20528;DHT22;23612;50.894;10.700;2024-01-15T04:25:29;-1.10;99.90
20528;DHT22;23612;50.894;10.700;2024-01-15T04:27:55;-1.10;99.90
20528;DHT22;23612;50.894;10.700;2024-01-15T04:30:20;-1.10;99.90
20528;DHT22;23612;50.894;10.700;2024-01-15T04:32:46;-1.20;99.90
20528;DHT22;23612;50.894;10.700;2024-01-15T04:35:11;-1.30;99.90
20528;DHT22;23612;50.894;10.700;2024-01-15T04:37:38;-1.40;99.90
20528;DHT22;23612;50.894;10.700;2024-01-15T04:40:03;-1.40;99.90
20528;DHT22;23612;50.894;10.700;2024-01-15T04:42:29;-1.40;99.90
20528;DHT22;23612;50.894;10.700;2024-01-15T04:44:55;-1.50;99.90
20528;DHT22;23612;50.894;10.700;2024-01-15T04:47:20;-1.50;99.90
20528;DHT22;23612;50.894;10.700;2024-01-15T04:49:46;-1.50;99.90
20528;DHT22;23612;50.894;10.700;2024-01-15T04:52:11;-1.60;99.90
20528;DHT22;23612;50.894;10.700;2024-01-15T04:54:38;-1.60;99.90
20528;DHT22;23612;50.894;10.700;2024-01-15T04:57:03;-1.60;99.90
20528;DHT22;23612;50.894;10.700;2024-01-15T04:59:29;-1.60;99.90
20528;DHT22;23612;50.894;10.700;2024-01-15T05:01:55;-1.60;99.90
20528;DHT22;23612;50.894;10.700;2024-01-15T05:04:20;-1.60;99.90
20528;DHT22;23612;50.894;10.700;2024-01-15T05:06:46;-1.60;99.90
20528;DHT22;23612;50.894;10.700;2024-01-15T05:09:12;-1.60;99.90
20528;DHT22;23612;50.894;10.700;2024-01-15T05:11:39;-1.60;99.90
20528;DHT22;23612;50.894;10.700;2024-01-15T05:14:04;-1.60;99.90
20528;DHT22;23612;50.894;10.700;2024-01-15T05:16:30;-1.60;99.90
20528;DHT22;23612;50.894;10.700;2024-01-15T05:18:55;-1.50;99.90
20528;DHT22;23612;50.894;10.700;2024-01-15T05:21:20;-1.40;99.90
20528;DHT22;23612;50.894;10.700;2024-01-15T05:23:46;-1.40;99.90
20528;DHT22;23612;50.894;10.700;2024-01-15T05:26:12;-1.30;99.90
20528;DHT22;23612;50.894;10.700;2024-01-15T05:28:37;-1.20;99.90
20528;DHT22;23612;50.894;10.700;2024-01-15T05:31:03;-1.20;99.90
20528;DHT22;23612;50.894;10.700;2024-01-15T05:33:29;-1.10;99.90
20528;DHT22;23612;50.894;10.700;2024-01-15T05:35:55;-1.10;99.90
20528;DHT22;23612;50.894;10.700;2024-01-15T05:38:20;-1.00;99.90
20528;DHT22;23612;50.894;10.700;2024-01-15T05:40:46;-1.00;99.90
20528;DHT22;23612;50.894;10.700;2024-01-15T05:43:11;-1.00;99.90
20528;DHT22;23612;50.894;10.700;2024-01-15T05:45:38;-0.90;99.90
20528;DHT22;23612;50.894;10.700;2024-01-15T05:48:04;-0.90;99.90
20528;DHT22;23612;50.894;10.700;2024-01-15T05:50:30;-0.90;99.90
20528;DHT22;23612;50.894;10.700;2024-01-15T05:52:55;-0.90;99.90
20528;DHT22;23612;50.894;10.700;2024-01-15T05:55:21;-1.00;99.90
20528;DHT22;23612;50.894;10.700;2024-01-15T05:57:46;-1.00;99.90
20528;DHT22;23612;50.894;10.700;2024-01-15T06:00:12;-1.00;99.90
20528;DHT22;23612;50.894;10.700;2024-01-15T06:02:38;-0.90;99.90
20528;DHT22;23612;50.894;10.700;2024-01-15T06:05:05;-0.90;99.90
20528;DHT22;23612;50.894;10.700;2024-01-15T06:07:31;-0.90;99.90
20528;DHT22;23612;50.894;10.700;2024-01-15T06:09:57;-0.90;99.90
20528;DHT22;23612;50.894;10.700;2024-01-15T06:12:23;-0.90;99.90
20528;DHT22;23612;50.894;10.700;2024-01-15T06:14:48;-0.90;99.90
20528;DHT22;23612;50.894;10.700;2024-01-15T06:17:14;-0.80;99.90
20528;DHT22;23612;50.894;10.700;2024-01-15T06:19:39;-0.80;99.90
20528;DHT22;23612;50.894;10.700;2024-01-15T06:22:05;-0.70;99.90
20528;DHT22;23612;50.894;10.700;2024-01-15T06:24:30;-0.60;99.90
20528;DHT22;23612;50.894;10.700;2024-01-15T06:26:56;-0.50;99.90
20528;DHT22;23612;50.894;10.700;2024-01-15T06:29:22;-0.40;99.90
20528;DHT22;23612;50.894;10.700;2024-01-15T06:31:49;-0.30;99.90
20528;DHT22;23612;50.894;10.700;2024-01-15T06:34:15;-0.30;99.90
20528;DHT22;23612;50.894;10.700;2024-01-15T06:36:40;-0.20;99.90
20528;DHT22;23612;50.894;10.700;2024-01-15T06:39:06;-0.10;99.90
20528;DHT22;23612;50.894;10.700;2024-01-15T06:41:31;0.00;99.90
20528;DHT22;23612;50.894;10.700;2024-01-15T06:43:57;0.00;99.90
20528;DHT22;23612;50.894;10.700;2024-01-15T06:46:22;0.00;99.90
20528;DHT22;23612;50.894;10.700;2024-01-15T06:48:48;0.00;99.90
20528;DHT22;23612;50.894;10.700;2024-01-15T06:51:14;0.00;99.90
20528;DHT22;23612;50.894;10.700;2024-01-15T06:53:40;-0.10;99.90
20528;DHT22;23612;50.894;10.700;2024-01-15T06:56:05;-0.10;99.90
20528;DHT22;23612;50.894;10.700;2024-01-15T06:58:31;-0.10;99.90
20528;DHT22;23612;50.894;10.700;2024-01-15T07:00:56;-0.10;99.90
20528;DHT22;23612;50.894;10.700;2024-01-15T07:03:23;-0.10;99.90
20528;DHT22;23612;50.894;10.700;2024-01-15T07:05:48;0.00;99.90
20528;DHT22;23612;50.894;10.700;2024-01-15T07:08:14;0.00;99.90
20528;DHT22;23612;50.894;10.700;2024-01-15T07:10:39;0.00;99.90
20528;DHT22;23612;50.894;10.700;2024-01-15T07:13:05;0.00;99.90
20528;DHT22;23612;50.894;10.700;2024-01-15T07:15:33;0.00;99.90
20528;DHT22;23612;50.894;10.700;2024-01-15T07:17:59;0.10;99.90
20528;DHT22;23612;50.894;10.700;2024-01-15T07:20:24;0.10;99.90
20528;DHT22;23612;50.894;10.700;2024-01-15T07:22:49;0.10;99.90
20528;DHT22;23612;50.894;10.700;2024-01-15T07:25:15;0.10;99.90
20528;DHT22;23612;50.894;10.700;2024-01-15T07:27:41;0.20;99.90
20528;DHT22;23612;50.894;10.700;2024-01-15T07:30:10;0.10;99.90
20528;DHT22;23612;50.894;10.700;2024-01-15T07:32:36;0.20;99.90
20528;DHT22;23612;50.894;10.700;2024-01-15T07:35:02;0.20;99.90
20528;DHT22;23612;50.894;10.700;2024-01-15T07:37:27;0.10;99.90
20528;DHT22;23612;50.894;10.700;2024-01-15T07:39:53;0.10;99.90
20528;DHT22;23612;50.894;10.700;2024-01-15T07:42:19;0.10;99.90
20528;DHT22;23612;50.894;10.700;2024-01-15T07:44:44;0.10;99.90
20528;DHT22;23612;50.894;10.700;2024-01-15T07:47:10;0.20;99.90
20528;DHT22;23612;50.894;10.700;2024-01-15T07:49:35;0.10;99.90
20528;DHT22;23612;50.894;10.700;2024-01-15T07:52:01;0.10;99.90
20528;DHT22;23612;50.894;10.700;2024-01-15T07:54:26;0.20;99.90
20528;DHT22;23612;50.894;10.700;2024-01-15T07:56:56;0.10;99.90
20528;DHT22;23612;50.894;10.700;2024-01-15T07:59:22;0.10;99.90
20528;DHT22;23612;50.894;10.700;2024-01-15T08:01:48;0.10;99.90
20528;DHT22;23612;50.894;10.700;2024-01-15T08:04:13;0.20;99.90
20528;DHT22;23612;50.894;10.700;2024-01-15T08:06:39;0.20;99.90
20528;DHT22;23612;50.894;10.700;2024-01-15T08:09:05;0.10;99.90
20528;DHT22;23612;50.894;10.700;2024-01-15T08:11:31;0.10;99.90
20528;DHT22;23612;50.894;10.700;2024-01-15T08:13:56;0.10;99.90
20528;DHT22;23612;50.894;10.700;2024-01-15T08:16:22;0.00;99.90
20528;DHT22;23612;50.894;10.700;2024-01-15T08:18:49;-0.10;99.90
20528;DHT22;23612;50.894;10.700;2024-01-15T08:21:15;-0.20;99.90
20528;DHT22;23612;50.894;10.700;2024-01-15T08:23:40;-0.20;99.90
20528;DHT22;23612;50.894;10.700;2024-01-15T08:26:07;-0.20;99.90
20528;DHT22;23612;50.894;10.700;2024-01-15T08:28:32;-0.30;99.90
20528;DHT22;23612;50.894;10.700;2024-01-15T08:30:58;-0.20;99.90
20528;DHT22;23612;50.894;10.700;2024-01-15T08:33:23;-0.20;99.90
20528;DHT22;23612;50.894;10.700;2024-01-15T08:35:49;-0.20;99.90
20528;DHT22;23612;50.894;10.700;2024-01-15T08:38:14;-0.20;99.90
20528;DHT22;23612;50.894;10.700;2024-01-15T08:40:40;-0.20;99.90
20528;DHT22;23612;50.894;10.700;2024-01-15T08:43:05;-0.10;99.90
20528;DHT22;23612;50.894;10.700;2024-01-15T08:45:32;-0.10;99.90
20528;DHT22;23612;50.894;10.700;2024-01-15T08:47:58;0.00;99.90
20528;DHT22;23612;50.894;10.700;2024-01-15T08:50:24;0.00;99.90
20528;DHT22;23612;50.894;10.700;2024-01-15T08:52:49;0.00;99.90
20528;DHT22;23612;50.894;10.700;2024-01-15T08:55:15;0.20;99.90
20528;DHT22;23612;50.894;10.700;2024-01-15T08:57:40;0.30;99.90
20528;DHT22;23612;50.894;10.700;2024-01-15T09:00:06;0.60;99.90
20528;DHT22;23612;50.894;10.700;2024-01-15T09:02:34;0.90;99.90
20528;DHT22;23612;50.894;10.700;2024-01-15T09:05:00;1.20;99.90
20528;DHT22;23612;50.894;10.700;2024-01-15T09:07:26;1.40;99.90
20528;DHT22;23612;50.894;10.700;2024-01-15T09:09:52;1.50;99.90
20528;DHT22;23612;50.894;10.700;2024-01-15T09:12:17;1.50;99.90
20528;DHT22;23612;50.894;10.700;2024-01-15T09:14:44;1.30;99.90
20528;DHT22;23612;50.894;10.700;2024-01-15T09:17:09;1.20;99.90
20528;DHT22;23612;50.894;10.700;2024-01-15T09:19:35;1.00;99.90
20528;DHT22;23612;50.894;10.700;2024-01-15T09:22:00;1.00;99.90
20528;DHT22;23612;50.894;10.700;2024-01-15T09:24:26;1.00;99.90
20528;DHT22;23612;50.894;10.700;2024-01-15T09:26:51;1.00;99.90
20528;DHT22;23612;50.894;10.700;2024-01-15T09:29:17;1.00;99.90
20528;DHT22;23612;50.894;10.700;2024-01-15T09:31:43;0.90;99.90
20528;DHT22;23612;50.894;10.700;2024-01-15T09:34:09;0.90;99.90
20528;DHT22;23612;50.894;10.700;2024-01-15T09:36:39;0.90;99.90
20528;DHT22;23612;50.894;10.700;2024-01-15T09:39:06;1.00;99.90
20528;DHT22;23612;50.894;10.700;2024-01-15T09:41:34;1.10;99.90
20528;DHT22;23612;50.894;10.700;2024-01-15T09:44:00;1.20;99.90
20528;DHT22;23612;50.894;10.700;2024-01-15T09:46:26;1.20;99.90
20528;DHT22;23612;50.894;10.700;2024-01-15T09:48:51;1.20;99.90
20528;DHT22;23612;50.894;10.700;2024-01-15T09:51:17;1.10;99.90
20528;DHT22;23612;50.894;10.700;2024-01-15T09:53:43;1.10;99.90
20528;DHT22;23612;50.894;10.700;2024-01-15T09:56:10;1.00;99.90
20528;DHT22;23612;50.894;10.700;2024-01-15T09:58:36;0.90;99.90
20528;DHT22;23612;50.894;10.700;2024-01-15T10:01:02;1.20;99.90
20528;DHT22;23612;50.894;10.700;2024-01-15T10:03:28;1.30;99.90
20528;DHT22;23612;50.894;10.700;2024-01-15T10:05:54;1.30;99.90
20528;DHT22;23612;50.894;10.700;2024-01-15T10:08:20;1.30;99.90
20528;DHT22;23612;50.894;10.700;2024-01-15T10:10:47;1.30;99.90
20528;DHT22;23612;50.894;10.700;2024-01-15T10:13:13;1.30;99.90
20528;DHT22;23612;50.894;10.700;2024-01-15T10:15:39;1.30;99.90
20528;DHT22;23612;50.894;10.700;2024-01-15T10:18:05;1.50;99.90
20528;DHT22;23612;50.894;10.700;2024-01-15T10:20:32;1.70;99.90
20528;DHT22;23612;50.894;10.700;2024-01-15T10:22:58;2.00;99.90
20528;DHT22;23612;50.894;10.700;2024-01-15T10:25:24;2.20;99.90
20528;DHT22;23612;50.894;10.700;2024-01-15T10:28:01;2.40;99.90
20528;DHT22;23612;50.894;10.700;2024-01-15T10:30:27;2.40;99.90
20528;DHT22;23612;50.894;10.700;2024-01-15T10:33:02;2.20;99.90
20528;DHT22;23612;50.894;10.700;2024-01-15T10:35:32;1.90;99.90
20528;DHT22;23612;50.894;10.700;2024-01-15T10:37:59;1.90;99.90
20528;DHT22;23612;50.894;10.700;2024-01-15T10:40:25;2.10;99.90
20528;DHT22;23612;50.894;10.700;2024-01-15T10:42:50;2.10;99.90
20528;DHT22;23612;50.894;10.700;2024-01-15T10:45:17;2.10;99.90
20528;DHT22;23612;50.894;10.700;2024-01-15T10:47:42;2.00;99.90
20528;DHT22;23612;50.894;10.700;2024-01-15T10:50:09;1.90;99.90
20528;DHT22;23612;50.894;10.700;2024-01-15T10:52:38;1.70;99.90
20528;DHT22;23612;50.894;10.700;2024-01-15T10:55:07;1.50;99.90
20528;DHT22;23612;50.894;10.700;2024-01-15T10:57:34;1.50;99.90
20528;DHT22;23612;50.894;10.700;2024-01-15T11:00:00;1.40;99.90
20528;DHT22;23612;50.894;10.700;2024-01-15T11:02:28;1.30;99.90
20528;DHT22;23612;50.894;10.700;2024-01-15T11:04:54;1.10;99.90
20528;DHT22;23612;50.894;10.700;2024-01-15T11:07:22;1.30;99.90
20528;DHT22;23612;50.894;10.700;2024-01-15T11:09:50;1.30;99.90
20528;DHT22;23612;50.894;10.700;2024-01-15T11:12:16;1.40;99.90
20528;DHT22;23612;50.894;10.700;2024-01-15T11:14:46;1.70;99.90
20528;DHT22;23612;50.894;10.700;2024-01-15T11:17:13;2.00;99.90
20528;DHT22;23612;50.894;10.700;2024-01-15T11:19:49;2.20;99.90
20528;DHT22;23612;50.894;10.700;2024-01-15T11:24:56;2.40;99.90
20528;DHT22;23612;50.894;10.700;2024-01-15T11:27:44;2.20;99.90
20528;DHT22;23612;50.894;10.700;2024-01-15T11:30:13;2.10;99.90
20528;DHT22;23612;50.894;10.700;2024-01-15T11:32:39;2.00;99.90
20528;DHT22;23612;50.894;10.700;2024-01-15T11:35:08;2.10;99.90
20528;DHT22;23612;50.894;10.700;2024-01-15T11:40:35;2.00;99.90
20528;DHT22;23612;50.894;10.700;2024-01-15T11:43:03;1.90;99.90
20528;DHT22;23612;50.894;10.700;2024-01-15T11:45:30;1.70;99.90
20528;DHT22;23612;50.894;10.700;2024-01-15T11:50:29;1.60;99.90
20528;DHT22;23612;50.894;10.700;2024-01-15T11:53:01;1.50;99.90
20528;DHT22;23612;50.894;10.700;2024-01-15T11:55:29;1.40;99.90
20528;DHT22;23612;50.894;10.700;2024-01-15T11:57:57;1.30;99.90
20528;DHT22;23612;50.894;10.700;2024-01-15T12:00:24;1.30;99.90
20528;DHT22;23612;50.894;10.700;2024-01-15T12:02:50;1.40;99.90
20528;DHT22;23612;50.894;10.700;2024-01-15T12:05:17;1.60;99.90
20528;DHT22;23612;50.894;10.700;2024-01-15T12:07:45;1.80;99.90
20528;DHT22;23612;50.894;10.700;2024-01-15T12:10:12;1.90;99.90
20528;DHT22;23612;50.894;10.700;2024-01-15T12:12:39;1.90;99.90
20528;DHT22;23612;50.894;10.700;2024-01-15T12:15:12;1.90;99.90
20528;DHT22;23612;50.894;10.700;2024-01-15T12:17:38;1.80;99.90
20528;DHT22;23612;50.894;10.700;2024-01-15T12:20:05;1.70;99.90
20528;DHT22;23612;50.894;10.700;2024-01-15T12:22:31;1.70;99.90
20528;DHT22;23612;50.894;10.700;2024-01-15T12:24:56;1.70;99.90
20528;DHT22;23612;50.894;10.700;2024-01-15T12:27:23;1.70;99.90
20528;DHT22;23612;50.894;10.700;2024-01-15T12:29:49;1.90;99.90
20528;DHT22;23612;50.894;10.700;2024-01-15T12:32:14;1.90;99.90
20528;DHT22;23612;50.894;10.700;2024-01-15T12:34:40;1.90;99.90
20528;DHT22;23612;50.894;10.700;2024-01-15T12:37:07;1.90;99.90
20528;DHT22;23612;50.894;10.700;2024-01-15T12:39:34;1.90;99.90
20528;DHT22;23612;50.894;10.700;2024-01-15T12:42:01;2.00;99.90
20528;DHT22;23612;50.894;10.700;2024-01-15T12:44:27;2.10;99.90
20528;DHT22;23612;50.894;10.700;2024-01-15T12:46:53;2.30;99.90
20528;DHT22;23612;50.894;10.700;2024-01-15T12:49:18;2.40;99.90
20528;DHT22;23612;50.894;10.700;2024-01-15T12:51:52;2.70;99.90
20528;DHT22;23612;50.894;10.700;2024-01-15T12:54:18;3.00;99.90
20528;DHT22;23612;50.894;10.700;2024-01-15T12:56:44;3.00;99.90
20528;DHT22;23612;50.894;10.700;2024-01-15T12:59:09;2.80;99.90
20528;DHT22;23612;50.894;10.700;2024-01-15T13:01:35;2.50;99.90
20528;DHT22;23612;50.894;10.700;2024-01-15T13:04:01;2.40;99.90
20528;DHT22;23612;50.894;10.700;2024-01-15T13:06:27;2.00;99.90
20528;DHT22;23612;50.894;10.700;2024-01-15T13:08:52;1.80;99.90
20528;DHT22;23612;50.894;10.700;2024-01-15T13:11:17;1.70;99.90
20528;DHT22;23612;50.894;10.700;2024-01-15T13:13:43;1.80;99.90
20528;DHT22;23612;50.894;10.700;2024-01-15T13:16:08;2.10;99.90
20528;DHT22;23612;50.894;10.700;2024-01-15T13:18:34;2.20;99.90
20528;DHT22;23612;50.894;10.700;2024-01-15T13:21:00;2.30;99.90
20528;DHT22;23612;50.894;10.700;2024-01-15T13:23:25;2.30;99.90
20528;DHT22;23612;50.894;10.700;2024-01-15T13:25:51;2.20;99.90
20528;DHT22;23612;50.894;10.700;2024-01-15T13:28:16;2.00;99.90
20528;DHT22;23612;50.894;10.700;2024-01-15T13:30:42;1.90;99.90
20528;DHT22;23612;50.894;10.700;2024-01-15T13:33:08;1.70;99.90
20528;DHT22;23612;50.894;10.700;2024-01-15T13:35:34;1.40;99.90
20528;DHT22;23612;50.894;10.700;2024-01-15T13:38:01;1.30;99.90
20528;DHT22;23612;50.894;10.700;2024-01-15T13:40:27;1.30;99.90
20528;DHT22;23612;50.894;10.700;2024-01-15T13:42:52;1.20;99.90
20528;DHT22;23612;50.894;10.700;2024-01-15T13:45:19;1.20;99.90
20528;DHT22;23612;50.894;10.700;2024-01-15T13:47:45;1.20;99.90
20528;DHT22;23612;50.894;10.700;2024-01-15T13:50:11;1.20;99.90
20528;DHT22;23612;50.894;10.700;2024-01-15T13:52:37;1.10;99.90
20528;DHT22;23612;50.894;10.700;2024-01-15T13:55:03;1.10;99.90
20528;DHT22;23612;50.894;10.700;2024-01-15T13:57:28;1.10;99.90
20528;DHT22;23612;50.894;10.700;2024-01-15T13:59:54;1.10;99.90
20528;DHT22;23612;50.894;10.700;2024-01-15T14:02:20;1.20;99.90
20528;DHT22;23612;50.894;10.700;2024-01-15T14:04:46;1.10;99.90
20528;DHT22;23612;50.894;10.700;2024-01-15T14:07:11;1.10;99.90
20528;DHT22;23612;50.894;10.700;2024-01-15T14:09:37;1.10;99.90
20528;DHT22;23612;50.894;10.700;2024-01-15T14:12:03;1.10;99.90
20528;DHT22;23612;50.894;10.700;2024-01-15T14:14:28;1.00;99.90
20528;DHT22;23612;50.894;10.700;2024-01-15T14:16:54;1.00;99.90
20528;DHT22;23612;50.894;10.700;2024-01-15T14:19:20;0.90;99.90
20528;DHT22;23612;50.894;10.700;2024-01-15T14:21:46;0.90;99.90
20528;DHT22;23612;50.894;10.700;2024-01-15T14:24:11;0.90;99.90
20528;DHT22;23612;50.894;10.700;2024-01-15T14:26:37;0.80;99.90
20528;DHT22;23612;50.894;10.700;2024-01-15T14:29:02;0.70;99.90
20528;DHT22;23612;50.894;10.700;2024-01-15T14:31:27;0.80;99.90
20528;DHT22;23612;50.894;10.700;2024-01-15T14:33:54;0.90;99.90
20528;DHT22;23612;50.894;10.700;2024-01-15T14:36:20;0.90;99.90
20528;DHT22;23612;50.894;10.700;2024-01-15T14:38:46;0.90;99.90
20528;DHT22;23612;50.894;10.700;2024-01-15T14:41:11;0.90;99.90
20528;DHT22;23612;50.894;10.700;2024-01-15T14:43:37;0.80;99.90
20528;DHT22;23612;50.894;10.700;2024-01-15T14:46:02;0.70;99.90
20528;DHT22;23612;50.894;10.700;2024-01-15T14:48:28;0.60;99.90
20528;DHT22;23612;50.894;10.700;2024-01-15T14:50:54;0.60;99.90
20528;DHT22;23612;50.894;10.700;2024-01-15T14:53:20;0.50;99.90
20528;DHT22;23612;50.894;10.700;2024-01-15T14:55:45;0.50;99.90
20528;DHT22;23612;50.894;10.700;2024-01-15T14:58:11;0.50;99.90
20528;DHT22;23612;50.894;10.700;2024-01-15T15:00:36;0.40;99.90
20528;DHT22;23612;50.894;10.700;2024-01-15T15:03:02;0.40;99.90
20528;DHT22;23612;50.894;10.700;2024-01-15T15:05:27;0.40;99.90
20528;DHT22;23612;50.894;10.700;2024-01-15T15:07:53;0.40;99.90
20528;DHT22;23612;50.894;10.700;2024-01-15T15:10:18;0.50;99.90
20528;DHT22;23612;50.894;10.700;2024-01-15T15:12:44;0.60;99.90
20528;DHT22;23612;50.894;10.700;2024-01-15T15:15:09;0.60;99.90
20528;DHT22;23612;50.894;10.700;2024-01-15T15:17:37;0.60;99.90
20528;DHT22;23612;50.894;10.700;2024-01-15T15:20:04;0.60;99.90
20528;DHT22;23612;50.894;10.700;2024-01-15T15:22:30;0.70;99.90